sensor_id;sensor_type;location;lat;lon;timestamp;pressure;altitude;pressure_sealevel;temperature;humidity
32131;BME280;18639;50.716;7.086;2023-11-19T00:00:19;99829.72;;;10.00;100.00
32131;BME280;18639;50.716;7.086;2023-11-19T00:02:44;99826.44;;;9.98;100.00
32131;BME280;18639;50.716;7.086;2023-11-19T00:05:10;99853.75;;;10.13;100.00
32131;BME280;18639;50.716;7.086;2023-11-19T00:07:37;99839.19;;;10.12;100.00
32131;BME280;18639;50.716;7.086;2023-11-19T00:10:07;99792.94;;;9.73;100.00
32131;BME280;18639;50.716;7.086;2023-11-19T00:12:34;99840.22;;;10.10;100.00
32131;BME280;18639;50.716;7.086;2023-11-19T00:15:00;99802.59;;;9.95;100.00
32131;BME280;18639;50.716;7.086;2023-11-19T00:17:25;99790.84;;;9.91;100.00
32131;BME280;18639;50.716;7.086;2023-11-19T00:19:50;99782.66;;;9.97;100.00
32131;BME280;18639;50.716;7.086;2023-11-19T00:22:16;99782.84;;;9.94;100.00
32131;BME280;18639;50.716;7.086;2023-11-19T00:24:42;99737.34;;;9.69;100.00
32131;BME280;18639;50.716;7.086;2023-11-19T00:27:07;99786.56;;;10.02;100.00
32131;BME280;18639;50.716;7.086;2023-11-19T00:29:33;99743.31;;;9.69;100.00
32131;BME280;18639;50.716;7.086;2023-11-19T00:31:58;99752.66;;;9.83;100.00
32131;BME280;18639;50.716;7.086;2023-11-19T00:34:23;99731.16;;;9.71;100.00
32131;BME280;18639;50.716;7.086;2023-11-19T00:36:48;99766.13;;;9.99;100.00
32131;BME280;18639;50.716;7.086;2023-11-19T00:39:14;99769.31;;;10.03;100.00
32131;BME280;18639;50.716;7.086;2023-11-19T00:41:40;99728.25;;;9.76;100.00
32131;BME280;18639;50.716;7.086;2023-11-19T00:44:05;99751.63;;;9.86;100.00
32131;BME280;18639;50.716;7.086;2023-11-19T00:46:30;99785.50;;;10.05;100.00
32131;BME280;18639;50.716;7.086;2023-11-19T00:48:57;99744.31;;;9.80;100.00
32131;BME280;18639;50.716;7.086;2023-11-19T00:51:24;99802.22;;;10.12;100.00
32131;BME280;18639;50.716;7.086;2023-11-19T00:53:50;99738.13;;;9.82;100.00
32131;BME280;18639;50.716;7.086;2023-11-19T00:56:15;99788.38;;;10.13;100.00
32131;BME280;18639;50.716;7.086;2023-11-19T00:58:42;99792.22;;;10.20;100.00
32131;BME280;18639;50.716;7.086;2023-11-19T01:01:07;99778.84;;;10.26;100.00
32131;BME280;18639;50.716;7.086;2023-11-19T01:03:33;99763.34;;;10.26;100.00
32131;BME280;18639;50.716;7.086;2023-11-19T01:05:58;99758.78;;;10.30;100.00
32131;BME280;18639;50.716;7.086;2023-11-19T01:08:26;99704.66;;;10.04;100.00
32131;BME280;18639;50.716;7.086;2023-11-19T01:10:51;99732.16;;;10.29;100.00
32131;BME280;18639;50.716;7.086;2023-11-19T01:13:16;99736.06;;;10.46;100.00
32131;BME280;18639;50.716;7.086;2023-11-19T01:15:41;99753.34;;;10.45;100.00
32131;BME280;18639;50.716;7.086;2023-11-19T01:18:07;99747.00;;;10.49;100.00
32131;BME280;18639;50.716;7.086;2023-11-19T01:20:34;99737.59;;;10.48;100.00
32131;BME280;18639;50.716;7.086;2023-11-19T01:22:59;99737.97;;;10.55;100.00
32131;BME280;18639;50.716;7.086;2023-11-19T01:25:25;99741.38;;;10.55;100.00
32131;BME280;18639;50.716;7.086;2023-11-19T01:27:50;99730.31;;;10.53;100.00
32131;BME280;18639;50.716;7.086;2023-11-19T01:30:15;99741.41;;;10.67;100.00
32131;BME280;18639;50.716;7.086;2023-11-19T01:32:41;99740.97;;;10.73;100.00
32131;BME280;18639;50.716;7.086;2023-11-19T01:35:06;99743.53;;;10.73;100.00
32131;BME280;18639;50.716;7.086;2023-11-19T01:37:33;99725.19;;;10.65;100.00
32131;BME280;18639;50.716;7.086;2023-11-19T01:39:59;99728.63;;;10.76;100.00
32131;BME280;18639;50.716;7.086;2023-11-19T01:42:25;99728.06;;;10.84;100.00
32131;BME280;18639;50.716;7.086;2023-11-19T01:44:58;99717.09;;;10.80;100.00
32131;BME280;18639;50.716;7.086;2023-11-19T01:47:27;99723.91;;;10.81;100.00
32131;BME280;18639;50.716;7.086;2023-11-19T01:49:54;99727.09;;;10.85;100.00
32131;BME280;18639;50.716;7.086;2023-11-19T01:52:20;99717.09;;;10.80;100.00
32131;BME280;18639;50.716;7.086;2023-11-19T01:54:45;99735.47;;;10.88;100.00
32131;BME280;18639;50.716;7.086;2023-11-19T01:57:12;99748.03;;;11.04;100.00
32131;BME280;18639;50.716;7.086;2023-11-19T01:59:38;99681.72;;;10.70;100.00
32131;BME280;18639;50.716;7.086;2023-11-19T02:02:05;99649.56;;;10.51;100.00
32131;BME280;18639;50.716;7.086;2023-11-19T02:04:31;99716.06;;;10.94;100.00
32131;BME280;18639;50.716;7.086;2023-11-19T02:06:58;99738.16;;;11.09;100.00
32131;BME280;18639;50.716;7.086;2023-11-19T02:09:23;99714.91;;;10.98;100.00
32131;BME280;18639;50.716;7.086;2023-11-19T02:11:48;99732.88;;;11.11;100.00
32131;BME280;18639;50.716;7.086;2023-11-19T02:14:17;99737.72;;;11.15;100.00
32131;BME280;18639;50.716;7.086;2023-11-19T02:16:43;99725.34;;;11.08;100.00
32131;BME280;18639;50.716;7.086;2023-11-19T02:19:08;99735.13;;;11.15;100.00
32131;BME280;18639;50.716;7.086;2023-11-19T02:21:35;99735.59;;;11.20;100.00
32131;BME280;18639;50.716;7.086;2023-11-19T02:24:05;99720.44;;;11.16;100.00
32131;BME280;18639;50.716;7.086;2023-11-19T02:26:49;99714.53;;;11.14;100.00
32131;BME280;18639;50.716;7.086;2023-11-19T02:29:15;99704.31;;;11.12;100.00
32131;BME280;18639;50.716;7.086;2023-11-19T02:31:40;99689.72;;;11.11;100.00
32131;BME280;18639;50.716;7.086;2023-11-19T02:34:05;99685.06;;;11.05;100.00
32131;BME280;18639;50.716;7.086;2023-11-19T02:36:31;99700.56;;;11.05;100.00
32131;BME280;18639;50.716;7.086;2023-11-19T02:38:57;99683.50;;;10.91;100.00
32131;BME280;18639;50.716;7.086;2023-11-19T02:41:23;99681.19;;;10.88;100.00
32131;BME280;18639;50.716;7.086;2023-11-19T02:43:48;99676.22;;;10.74;100.00
32131;BME280;18639;50.716;7.086;2023-11-19T02:46:13;99681.06;;;10.79;100.00
32131;BME280;18639;50.716;7.086;2023-11-19T02:48:39;99696.78;;;10.87;100.00
32131;BME280;18639;50.716;7.086;2023-11-19T02:51:05;99677.75;;;10.66;100.00
32131;BME280;18639;50.716;7.086;2023-11-19T02:53:34;99709.59;;;10.88;100.00
32131;BME280;18639;50.716;7.086;2023-11-19T02:55:59;99685.25;;;10.80;100.00
32131;BME280;18639;50.716;7.086;2023-11-19T02:58:36;99682.34;;;10.62;100.00
32131;BME280;18639;50.716;7.086;2023-11-19T03:01:02;99687.63;;;10.72;100.00
32131;BME280;18639;50.716;7.086;2023-11-19T03:03:37;99678.94;;;10.73;100.00
32131;BME280;18639;50.716;7.086;2023-11-19T03:06:06;99693.84;;;10.80;100.00
32131;BME280;18639;50.716;7.086;2023-11-19T03:08:35;99653.78;;;10.41;100.00
32131;BME280;18639;50.716;7.086;2023-11-19T03:11:01;99694.19;;;10.76;100.00
32131;BME280;18639;50.716;7.086;2023-11-19T03:13:27;99678.19;;;10.60;100.00
32131;BME280;18639;50.716;7.086;2023-11-19T03:15:52;99662.69;;;10.48;100.00
32131;BME280;18639;50.716;7.086;2023-11-19T03:18:19;99661.50;;;10.52;100.00
32131;BME280;18639;50.716;7.086;2023-11-19T03:20:46;99691.25;;;10.69;100.00
32131;BME280;18639;50.716;7.086;2023-11-19T03:23:11;99683.16;;;10.63;100.00
32131;BME280;18639;50.716;7.086;2023-11-19T03:25:36;99684.56;;;10.67;100.00
32131;BME280;18639;50.716;7.086;2023-11-19T03:28:03;99612.16;;;10.22;100.00
32131;BME280;18639;50.716;7.086;2023-11-19T03:30:29;99676.19;;;10.63;100.00
32131;BME280;18639;50.716;7.086;2023-11-19T03:32:56;99671.84;;;10.64;100.00
32131;BME280;18639;50.716;7.086;2023-11-19T03:35:22;99678.44;;;10.57;100.00
32131;BME280;18639;50.716;7.086;2023-11-19T03:37:47;99673.03;;;10.60;100.00
32131;BME280;18639;50.716;7.086;2023-11-19T03:40:13;99672.56;;;10.54;100.00
32131;BME280;18639;50.716;7.086;2023-11-19T03:42:38;99677.16;;;10.51;100.00
32131;BME280;18639;50.716;7.086;2023-11-19T03:45:06;99669.59;;;10.48;100.00
32131;BME280;18639;50.716;7.086;2023-11-19T03:47:33;99617.72;;;10.05;100.00
32131;BME280;18639;50.716;7.086;2023-11-19T03:49:58;99635.41;;;10.22;100.00
32131;BME280;18639;50.716;7.086;2023-11-19T03:52:24;99654.25;;;10.46;100.00
32131;BME280;18639;50.716;7.086;2023-11-19T03:54:49;99645.06;;;10.42;100.00
32131;BME280;18639;50.716;7.086;2023-11-19T03:57:14;99664.59;;;10.58;100.00
32131;BME280;18639;50.716;7.086;2023-11-19T03:59:41;99661.78;;;10.61;100.00
32131;BME280;18639;50.716;7.086;2023-11-19T04:02:06;99669.53;;;10.61;100.00
32131;BME280;18639;50.716;7.086;2023-11-19T04:04:31;99642.63;;;10.41;100.00
32131;BME280;18639;50.716;7.086;2023-11-19T04:06:57;99625.78;;;10.24;100.00
32131;BME280;18639;50.716;7.086;2023-11-19T04:09:23;99680.31;;;10.54;100.00
32131;BME280;18639;50.716;7.086;2023-11-19T04:11:48;99681.84;;;10.57;100.00
32131;BME280;18639;50.716;7.086;2023-11-19T04:14:14;99685.03;;;10.61;100.00
32131;BME280;18639;50.716;7.086;2023-11-19T04:16:40;99682.44;;;10.61;100.00
32131;BME280;18639;50.716;7.086;2023-11-19T04:19:05;99673.28;;;10.57;100.00
32131;BME280;18639;50.716;7.086;2023-11-19T04:21:31;99652.13;;;10.40;100.00
32131;BME280;18639;50.716;7.086;2023-11-19T04:23:57;99637.91;;;10.35;100.00
32131;BME280;18639;50.716;7.086;2023-11-19T04:26:22;99633.56;;;10.35;100.00
32131;BME280;18639;50.716;7.086;2023-11-19T04:28:47;99676.34;;;10.73;100.00
32131;BME280;18639;50.716;7.086;2023-11-19T04:31:14;99674.59;;;10.73;100.00
32131;BME280;18639;50.716;7.086;2023-11-19T04:33:41;99678.81;;;10.85;100.00
32131;BME280;18639;50.716;7.086;2023-11-19T04:36:06;99625.03;;;10.57;100.00
32131;BME280;18639;50.716;7.086;2023-11-19T04:38:32;99648.75;;;10.73;100.00
32131;BME280;18639;50.716;7.086;2023-11-19T04:40:57;99647.22;;;10.82;100.00
32131;BME280;18639;50.716;7.086;2023-11-19T04:43:22;99675.66;;;11.04;100.00
32131;BME280;18639;50.716;7.086;2023-11-19T04:45:48;99696.91;;;11.08;100.00
32131;BME280;18639;50.716;7.086;2023-11-19T04:48:13;99700.31;;;11.08;100.00
32131;BME280;18639;50.716;7.086;2023-11-19T04:50:38;99643.91;;;10.69;100.00
32131;BME280;18639;50.716;7.086;2023-11-19T04:53:03;99699.97;;;11.02;100.00
32131;BME280;18639;50.716;7.086;2023-11-19T04:55:29;99721.47;;;11.02;100.00
32131;BME280;18639;50.716;7.086;2023-11-19T04:57:54;99733.22;;;11.06;100.00
32131;BME280;18639;50.716;7.086;2023-11-19T05:00:20;99716.66;;;11.09;100.00
32131;BME280;18639;50.716;7.086;2023-11-19T05:02:46;99705.72;;;10.94;100.00
32131;BME280;18639;50.716;7.086;2023-11-19T05:05:12;99727.94;;;11.08;100.00
32131;BME280;18639;50.716;7.086;2023-11-19T05:07:37;99753.69;;;11.20;100.00
32131;BME280;18639;50.716;7.086;2023-11-19T05:10:03;99728.75;;;11.08;100.00
32131;BME280;18639;50.716;7.086;2023-11-19T05:12:29;99704.19;;;11.03;100.00
32131;BME280;18639;50.716;7.086;2023-11-19T05:14:54;99739.47;;;11.15;100.00
32131;BME280;18639;50.716;7.086;2023-11-19T05:17:20;99703.81;;;10.85;100.00
32131;BME280;18639;50.716;7.086;2023-11-19T05:19:45;99757.94;;;11.21;100.00
32131;BME280;18639;50.716;7.086;2023-11-19T05:22:10;99762.63;;;11.16;100.00
32131;BME280;18639;50.716;7.086;2023-11-19T05:24:36;99744.84;;;11.01;100.00
32131;BME280;18639;50.716;7.086;2023-11-19T05:27:02;99765.44;;;11.13;100.00
32131;BME280;18639;50.716;7.086;2023-11-19T05:29:27;99718.28;;;10.76;100.00
32131;BME280;18639;50.716;7.086;2023-11-19T05:31:53;99734.38;;;10.91;100.00
32131;BME280;18639;50.716;7.086;2023-11-19T05:34:20;99760.72;;;11.07;100.00
32131;BME280;18639;50.716;7.086;2023-11-19T05:36:45;99763.31;;;11.07;100.00
32131;BME280;18639;50.716;7.086;2023-11-19T05:39:11;99711.69;;;10.72;100.00
32131;BME280;18639;50.716;7.086;2023-11-19T05:41:36;99763.56;;;11.04;100.00
32131;BME280;18639;50.716;7.086;2023-11-19T05:44:01;99701.72;;;10.68;100.00
32131;BME280;18639;50.716;7.086;2023-11-19T05:46:27;99759.06;;;11.06;100.00
32131;BME280;18639;50.716;7.086;2023-11-19T05:48:52;99786.25;;;11.23;100.00
32131;BME280;18639;50.716;7.086;2023-11-19T05:51:18;99748.97;;;10.92;100.00
32131;BME280;18639;50.716;7.086;2023-11-19T05:53:43;99774.59;;;11.06;100.00
32131;BME280;18639;50.716;7.086;2023-11-19T05:56:11;99792.47;;;11.20;100.00
32131;BME280;18639;50.716;7.086;2023-11-19T05:58:36;99708.75;;;10.66;100.00
32131;BME280;18639;50.716;7.086;2023-11-19T06:01:02;99803.75;;;11.19;100.00
32131;BME280;18639;50.716;7.086;2023-11-19T06:03:28;99773.66;;;11.07;100.00
32131;BME280;18639;50.716;7.086;2023-11-19T06:05:54;99778.97;;;11.06;100.00
32131;BME280;18639;50.716;7.086;2023-11-19T06:08:20;99760.03;;;11.05;100.00
32131;BME280;18639;50.716;7.086;2023-11-19T06:10:46;99784.94;;;11.17;100.00
32131;BME280;18639;50.716;7.086;2023-11-19T06:13:14;99792.25;;;11.23;100.00
32131;BME280;18639;50.716;7.086;2023-11-19T06:15:44;99793.44;;;11.30;100.00
32131;BME280;18639;50.716;7.086;2023-11-19T06:18:10;99791.56;;;11.32;100.00
32131;BME280;18639;50.716;7.086;2023-11-19T06:20:37;99805.44;;;11.31;100.00
32131;BME280;18639;50.716;7.086;2023-11-19T06:23:02;99803.66;;;11.21;100.00
32131;BME280;18639;50.716;7.086;2023-11-19T06:25:28;99758.09;;;10.85;100.00
32131;BME280;18639;50.716;7.086;2023-11-19T06:27:53;99780.00;;;11.03;100.00
32131;BME280;18639;50.716;7.086;2023-11-19T06:30:19;99819.28;;;11.30;100.00
32131;BME280;18639;50.716;7.086;2023-11-19T06:32:45;99766.84;;;10.95;100.00
32131;BME280;18639;50.716;7.086;2023-11-19T06:35:10;99822.09;;;11.27;100.00
32131;BME280;18639;50.716;7.086;2023-11-19T06:37:39;99801.53;;;11.15;100.00
32131;BME280;18639;50.716;7.086;2023-11-19T06:40:05;99794.69;;;11.03;100.00
32131;BME280;18639;50.716;7.086;2023-11-19T06:42:31;99773.41;;;10.88;100.00
32131;BME280;18639;50.716;7.086;2023-11-19T06:44:56;99823.97;;;11.14;100.00
32131;BME280;18639;50.716;7.086;2023-11-19T06:47:25;99803.97;;;10.94;100.00
32131;BME280;18639;50.716;7.086;2023-11-19T06:49:50;99831.72;;;11.03;100.00
32131;BME280;18639;50.716;7.086;2023-11-19T06:52:16;99834.53;;;11.00;100.00
32131;BME280;18639;50.716;7.086;2023-11-19T06:54:41;99823.03;;;11.04;100.00
32131;BME280;18639;50.716;7.086;2023-11-19T06:57:06;99801.84;;;10.88;100.00
32131;BME280;18639;50.716;7.086;2023-11-19T06:59:32;99772.19;;;10.70;100.00
32131;BME280;18639;50.716;7.086;2023-11-19T07:01:57;99816.31;;;11.02;100.00
32131;BME280;18639;50.716;7.086;2023-11-19T07:04:24;99827.94;;;11.07;100.00
32131;BME280;18639;50.716;7.086;2023-11-19T07:06:49;99820.41;;;10.93;100.00
32131;BME280;18639;50.716;7.086;2023-11-19T07:09:15;99833.00;;;10.97;100.00
32131;BME280;18639;50.716;7.086;2023-11-19T07:11:41;99817.19;;;10.78;100.00
32131;BME280;18639;50.716;7.086;2023-11-19T07:14:09;99835.69;;;10.96;100.00
32131;BME280;18639;50.716;7.086;2023-11-19T07:16:35;99829.81;;;10.94;100.00
32131;BME280;18639;50.716;7.086;2023-11-19T07:19:02;99838.59;;;10.91;100.00
32131;BME280;18639;50.716;7.086;2023-11-19T07:21:28;99860.25;;;11.02;100.00
32131;BME280;18639;50.716;7.086;2023-11-19T07:23:56;99866.69;;;10.96;100.00
32131;BME280;18639;50.716;7.086;2023-11-19T07:26:22;99867.88;;;10.92;100.00
32131;BME280;18639;50.716;7.086;2023-11-19T07:28:48;99844.44;;;10.71;100.00
32131;BME280;18639;50.716;7.086;2023-11-19T07:31:13;99867.38;;;10.87;100.00
32131;BME280;18639;50.716;7.086;2023-11-19T07:33:42;99854.22;;;10.79;100.00
32131;BME280;18639;50.716;7.086;2023-11-19T07:36:08;99849.97;;;10.78;100.00
32131;BME280;18639;50.716;7.086;2023-11-19T07:38:34;99869.53;;;10.93;100.00
32131;BME280;18639;50.716;7.086;2023-11-19T07:40:59;99869.63;;;10.91;100.00
32131;BME280;18639;50.716;7.086;2023-11-19T07:43:24;99882.59;;;11.03;100.00
32131;BME280;18639;50.716;7.086;2023-11-19T07:45:50;99877.06;;;11.07;100.00
32131;BME280;18639;50.716;7.086;2023-11-19T07:48:15;99873.81;;;11.16;100.00
32131;BME280;18639;50.716;7.086;2023-11-19T07:50:40;99875.94;;;11.33;100.00
32131;BME280;18639;50.716;7.086;2023-11-19T07:53:07;99890.81;;;11.43;100.00
32131;BME280;18639;50.716;7.086;2023-11-19T07:55:33;99854.06;;;11.15;100.00
32131;BME280;18639;50.716;7.086;2023-11-19T07:57:58;99881.03;;;11.46;100.00
32131;BME280;18639;50.716;7.086;2023-11-19T08:00:23;99864.69;;;11.46;100.00
32131;BME280;18639;50.716;7.086;2023-11-19T08:02:49;99874.13;;;11.58;100.00
32131;BME280;18639;50.716;7.086;2023-11-19T08:05:14;99904.03;;;11.73;100.00
32131;BME280;18639;50.716;7.086;2023-11-19T08:07:39;99867.88;;;11.60;100.00
32131;BME280;18639;50.716;7.086;2023-11-19T08:10:05;99907.56;;;11.94;100.00
32131;BME280;18639;50.716;7.086;2023-11-19T08:12:31;99919.69;;;12.05;100.00
32131;BME280;18639;50.716;7.086;2023-11-19T08:14:56;99915.78;;;12.10;100.00
32131;BME280;18639;50.716;7.086;2023-11-19T08:17:23;99909.66;;;12.11;100.00
32131;BME280;18639;50.716;7.086;2023-11-19T08:19:49;99910.25;;;12.15;100.00
32131;BME280;18639;50.716;7.086;2023-11-19T08:22:14;99915.78;;;12.10;100.00
32131;BME280;18639;50.716;7.086;2023-11-19T08:24:39;99916.97;;;12.29;100.00
32131;BME280;18639;50.716;7.086;2023-11-19T08:27:05;99910.13;;;12.71;100.00
32131;BME280;18639;50.716;7.086;2023-11-19T08:29:30;99918.72;;;13.35;100.00
32131;BME280;18639;50.716;7.086;2023-11-19T08:31:55;99896.06;;;13.67;100.00
32131;BME280;18639;50.716;7.086;2023-11-19T08:34:20;99933.06;;;14.20;100.00
32131;BME280;18639;50.716;7.086;2023-11-19T08:36:46;99913.16;;;14.40;100.00
32131;BME280;18639;50.716;7.086;2023-11-19T08:39:14;99902.81;;;14.19;100.00
32131;BME280;18639;50.716;7.086;2023-11-19T08:41:40;99926.22;;;14.29;100.00
32131;BME280;18639;50.716;7.086;2023-11-19T08:44:06;99911.81;;;13.75;100.00
32131;BME280;18639;50.716;7.086;2023-11-19T08:46:32;99914.94;;;13.48;100.00
32131;BME280;18639;50.716;7.086;2023-11-19T08:48:57;99917.44;;;13.50;100.00
32131;BME280;18639;50.716;7.086;2023-11-19T08:51:23;99917.81;;;13.25;100.00
32131;BME280;18639;50.716;7.086;2023-11-19T08:53:49;99944.66;;;13.35;100.00
32131;BME280;18639;50.716;7.086;2023-11-19T08:56:15;99933.44;;;13.14;100.00
32131;BME280;18639;50.716;7.086;2023-11-19T08:58:40;99926.38;;;13.04;100.00
32131;BME280;18639;50.716;7.086;2023-11-19T09:01:05;99961.28;;;13.12;100.00
32131;BME280;18639;50.716;7.086;2023-11-19T09:03:31;99967.88;;;13.04;100.00
32131;BME280;18639;50.716;7.086;2023-11-19T09:05:57;99948.38;;;12.78;100.00
32131;BME280;18639;50.716;7.086;2023-11-19T09:08:22;99957.66;;;12.60;100.00
32131;BME280;18639;50.716;7.086;2023-11-19T09:10:47;99939.28;;;12.52;100.00
32131;BME280;18639;50.716;7.086;2023-11-19T09:13:13;99944.53;;;12.61;100.00
32131;BME280;18639;50.716;7.086;2023-11-19T09:15:38;99933.25;;;12.62;100.00
32131;BME280;18639;50.716;7.086;2023-11-19T09:18:03;99971.22;;;12.95;100.00
32131;BME280;18639;50.716;7.086;2023-11-19T09:20:30;99976.78;;;12.91;100.00
32131;BME280;18639;50.716;7.086;2023-11-19T09:23:02;99897.66;;;12.64;100.00
32131;BME280;18639;50.716;7.086;2023-11-19T09:25:28;99984.97;;;13.18;100.00
32131;BME280;18639;50.716;7.086;2023-11-19T09:27:53;99960.19;;;13.14;100.00
32131;BME280;18639;50.716;7.086;2023-11-19T09:30:19;99940.34;;;12.92;100.00
32131;BME280;18639;50.716;7.086;2023-11-19T09:32:44;99979.13;;;13.26;100.00
32131;BME280;18639;50.716;7.086;2023-11-19T09:35:09;99916.03;;;12.93;100.00
32131;BME280;18639;50.716;7.086;2023-11-19T09:37:38;99959.00;;;13.18;100.00
32131;BME280;18639;50.716;7.086;2023-11-19T09:40:04;99941.44;;;13.11;100.00
32131;BME280;18639;50.716;7.086;2023-11-19T09:42:32;99977.56;;;13.34;100.00
32131;BME280;18639;50.716;7.086;2023-11-19T09:45:06;99947.16;;;13.25;100.00
32131;BME280;18639;50.716;7.086;2023-11-19T09:47:37;99918.13;;;13.31;100.00
32131;BME280;18639;50.716;7.086;2023-11-19T09:50:03;99949.00;;;13.76;100.00
32131;BME280;18639;50.716;7.086;2023-11-19T09:52:30;99910.81;;;13.67;100.00
32131;BME280;18639;50.716;7.086;2023-11-19T09:54:55;99949.81;;;14.07;100.00
32131;BME280;18639;50.716;7.086;2023-11-19T09:57:21;99952.19;;;13.89;100.00
32131;BME280;18639;50.716;7.086;2023-11-19T09:59:47;99942.09;;;13.65;100.00
32131;BME280;18639;50.716;7.086;2023-11-19T10:02:13;99934.91;;;13.48;100.00
32131;BME280;18639;50.716;7.086;2023-11-19T10:04:40;99932.50;;;13.56;100.00
32131;BME280;18639;50.716;7.086;2023-11-19T10:07:07;99942.63;;;13.59;100.00
32131;BME280;18639;50.716;7.086;2023-11-19T10:09:33;99938.69;;;13.65;100.00
32131;BME280;18639;50.716;7.086;2023-11-19T10:11:59;99972.91;;;13.79;100.00
32131;BME280;18639;50.716;7.086;2023-11-19T10:14:25;99940.72;;;13.61;100.00
32131;BME280;18639;50.716;7.086;2023-11-19T10:16:51;99933.75;;;13.62;100.00
32131;BME280;18639;50.716;7.086;2023-11-19T10:19:19;99931.84;;;13.64;100.00
32131;BME280;18639;50.716;7.086;2023-11-19T10:21:48;99908.94;;;13.48;100.00
32131;BME280;18639;50.716;7.086;2023-11-19T10:24:13;99936.47;;;13.60;100.00
32131;BME280;18639;50.716;7.086;2023-11-19T10:26:40;99943.38;;;13.71;100.00
32131;BME280;18639;50.716;7.086;2023-11-19T10:29:05;99950.69;;;13.86;100.00
32131;BME280;18639;50.716;7.086;2023-11-19T10:31:30;99942.59;;;13.80;100.00
32131;BME280;18639;50.716;7.086;2023-11-19T10:33:56;99918.97;;;13.62;100.00
32131;BME280;18639;50.716;7.086;2023-11-19T10:36:21;99925.31;;;13.69;100.00
32131;BME280;18639;50.716;7.086;2023-11-19T10:38:53;99901.69;;;13.52;100.00
32131;BME280;18639;50.716;7.086;2023-11-19T10:41:32;99936.44;;;13.81;100.00
32131;BME280;18639;50.716;7.086;2023-11-19T10:43:58;99925.00;;;13.83;100.00
32131;BME280;18639;50.716;7.086;2023-11-19T10:46:36;99957.28;;;14.21;100.00
32131;BME280;18639;50.716;7.086;2023-11-19T10:49:02;99940.28;;;14.17;100.00
32131;BME280;18639;50.716;7.086;2023-11-19T10:51:28;99961.59;;;14.41;100.00
32131;BME280;18639;50.716;7.086;2023-11-19T10:53:58;99922.09;;;14.17;100.00
32131;BME280;18639;50.716;7.086;2023-11-19T10:56:29;99913.34;;;14.18;100.00
32131;BME280;18639;50.716;7.086;2023-11-19T10:58:56;99921.69;;;14.21;100.00
32131;BME280;18639;50.716;7.086;2023-11-19T11:01:27;99920.88;;;14.21;100.00
32131;BME280;18639;50.716;7.086;2023-11-19T11:03:55;99909.78;;;14.19;100.00
32131;BME280;18639;50.716;7.086;2023-11-19T11:06:22;99920.34;;;14.27;100.00
32131;BME280;18639;50.716;7.086;2023-11-19T11:08:48;99938.00;;;14.33;100.00
32131;BME280;18639;50.716;7.086;2023-11-19T11:11:15;99931.94;;;14.23;100.00
32131;BME280;18639;50.716;7.086;2023-11-19T11:13:42;99891.81;;;13.97;100.00
32131;BME280;18639;50.716;7.086;2023-11-19T11:16:09;99916.00;;;13.97;100.00
32131;BME280;18639;50.716;7.086;2023-11-19T11:18:36;99880.84;;;13.83;100.00
32131;BME280;18639;50.716;7.086;2023-11-19T11:21:06;99917.91;;;13.95;100.00
32131;BME280;18639;50.716;7.086;2023-11-19T11:24:08;99936.28;;;14.03;100.00
32131;BME280;18639;50.716;7.086;2023-11-19T11:27:07;99919.09;;;13.81;100.00
32131;BME280;18639;50.716;7.086;2023-11-19T11:29:48;99894.81;;;13.62;100.00
32131;BME280;18639;50.716;7.086;2023-11-19T11:32:41;99921.34;;;13.65;100.00
32131;BME280;18639;50.716;7.086;2023-11-19T11:38:09;99933.75;;;13.62;100.00
32131;BME280;18639;50.716;7.086;2023-11-19T11:40:34;99904.97;;;13.44;100.00
32131;BME280;18639;50.716;7.086;2023-11-19T11:43:01;99889.34;;;13.34;100.00
32131;BME280;18639;50.716;7.086;2023-11-19T11:45:38;99896.47;;;13.42;100.00
32131;BME280;18639;50.716;7.086;2023-11-19T11:48:10;99946.97;;;13.59;100.00
32131;BME280;18639;50.716;7.086;2023-11-19T11:50:52;99929.81;;;13.46;100.00
32131;BME280;18639;50.716;7.086;2023-11-19T11:53:20;99903.84;;;13.05;100.00
32131;BME280;18639;50.716;7.086;2023-11-19T11:58:13;99906.09;;;12.98;100.00
32131;BME280;18639;50.716;7.086;2023-11-19T12:00:40;99853.50;;;12.55;100.00
32131;BME280;18639;50.716;7.086;2023-11-19T12:03:07;99930.28;;;12.99;100.00
32131;BME280;18639;50.716;7.086;2023-11-19T12:05:38;99872.56;;;12.65;100.00
32131;BME280;18639;50.716;7.086;2023-11-19T12:08:04;99874.69;;;12.60;100.00
32131;BME280;18639;50.716;7.086;2023-11-19T12:10:36;99853.44;;;12.34;100.00
32131;BME280;18639;50.716;7.086;2023-11-19T12:13:05;99835.66;;;12.30;100.00
32131;BME280;18639;50.716;7.086;2023-11-19T12:15:32;99889.06;;;12.64;100.00
32131;BME280;18639;50.716;7.086;2023-11-19T12:17:57;99851.41;;;12.49;100.00
32131;BME280;18639;50.716;7.086;2023-11-19T12:20:25;99848.09;;;12.47;100.00
32131;BME280;18639;50.716;7.086;2023-11-19T12:22:51;99849.31;;;12.43;100.00
32131;BME280;18639;50.716;7.086;2023-11-19T12:25:17;99836.31;;;12.54;100.00
32131;BME280;18639;50.716;7.086;2023-11-19T12:27:46;99842.69;;;12.50;100.00
32131;BME280;18639;50.716;7.086;2023-11-19T12:30:12;99868.19;;;12.65;100.00
32131;BME280;18639;50.716;7.086;2023-11-19T12:32:41;99883.91;;;12.85;100.00
32131;BME280;18639;50.716;7.086;2023-11-19T12:35:08;99819.88;;;12.44;100.00
32131;BME280;18639;50.716;7.086;2023-11-19T12:37:43;99888.53;;;12.81;100.00
32131;BME280;18639;50.716;7.086;2023-11-19T12:40:23;99860.78;;;12.61;100.00
32131;BME280;18639;50.716;7.086;2023-11-19T12:42:50;99825.50;;;12.49;100.00
32131;BME280;18639;50.716;7.086;2023-11-19T12:45:16;99856.97;;;12.76;100.00
32131;BME280;18639;50.716;7.086;2023-11-19T12:47:44;99834.81;;;12.72;100.00
32131;BME280;18639;50.716;7.086;2023-11-19T12:50:12;99831.53;;;12.70;100.00
32131;BME280;18639;50.716;7.086;2023-11-19T12:52:37;99836.34;;;12.75;100.00